Time;durP1;ratioP1;P1;durP2;ratioP2;P2;SDS_P1;SDS_P2;PMS_P1;PMS_P2;Temp;Humidity;BMP_temperature;BMP_pressure;BME280_temperature;BME280_humidity;BME280_pressure;Samples;Min_cycle;Max_cycle;Signal;HPM_P1;HPM_P2
2022/01/22 00:00:29;;;;;;;17.17;10.00;;;;;;;16.80;37.80;103779.22;4992986;28;20366;-73
2022/01/22 00:02:55;;;;;;;16.65;10.70;;;;;;;16.51;38.17;103779.00;4992920;28;20558;-74
2022/01/22 00:05:22;;;;;;;16.40;10.80;;;;;;;16.72;37.80;103777.03;4992981;28;20037;-80
2022/01/22 00:07:48;;;;;;;21.65;11.20;;;;;;;16.76;37.68;103778.09;4992851;28;20058;-80
2022/01/22 00:10:17;;;;;;;13.38;9.52;;;;;;;16.73;37.71;103777.84;4992971;28;20042;-73
2022/01/22 00:15:28;;;;;;;16.63;10.65;;;;;;;16.59;37.99;103778.41;4992934;28;20510;-79
2022/01/22 00:17:54;;;;;;;12.93;10.00;;;;;;;16.71;37.98;103780.09;4992884;28;20130;-73
2022/01/22 00:20:23;;;;;;;17.30;10.02;;;;;;;16.70;37.98;103784.78;4992781;28;20018;-72
2022/01/22 00:22:50;;;;;;;14.98;10.25;;;;;;;16.76;37.88;103780.03;4991405;28;20363;-80
2022/01/22 00:25:17;;;;;;;16.95;9.20;;;;;;;16.80;37.60;103775.63;4992653;28;20485;-73
2022/01/22 00:27:45;;;;;;;13.57;10.07;;;;;;;16.80;37.82;103773.69;4992762;28;20022;-80
2022/01/22 00:30:14;;;;;;;13.60;10.50;;;;;;;16.79;37.81;103782.25;4992726;28;20045;-74
2022/01/22 00:32:40;;;;;;;15.25;10.35;;;;;;;16.81;37.80;103775.34;4992732;28;20057;-75
2022/01/22 00:35:07;;;;;;;15.55;9.40;;;;;;;16.82;37.89;103781.69;4992804;28;20442;-77
2022/01/22 00:37:35;;;;;;;20.45;10.40;;;;;;;16.86;37.83;103777.25;4992322;28;20026;-74
2022/01/22 00:40:03;;;;;;;16.52;9.95;;;;;;;16.87;37.98;103778.91;4992557;28;20109;-75
2022/01/22 00:42:31;;;;;;;14.85;9.75;;;;;;;16.89;37.76;103776.69;4992517;28;20039;-80
2022/01/22 00:44:56;;;;;;;15.38;9.63;;;;;;;16.90;37.85;103789.38;4992548;28;20038;-73
2022/01/22 00:47:22;;;;;;;19.92;9.13;;;;;;;16.85;37.95;103778.34;4993927;28;20030;-73
2022/01/22 00:49:48;;;;;;;14.35;10.27;;;;;;;16.89;37.99;103776.69;4996136;28;20030;-80
2022/01/22 00:52:14;;;;;;;14.38;9.88;;;;;;;16.89;37.99;103765.63;4996233;28;20109;-74
2022/01/22 00:54:40;;;;;;;15.85;9.32;;;;;;;16.85;38.13;103770.06;4996128;28;20105;-77
2022/01/22 00:57:06;;;;;;;14.38;8.90;;;;;;;16.91;38.10;103769.75;4996021;28;20030;-73
2022/01/22 00:59:32;;;;;;;14.25;8.18;;;;;;;16.91;37.98;103768.94;4996016;28;20041;-81
2022/01/22 01:01:58;;;;;;;12.82;8.23;;;;;;;16.90;37.93;103764.53;4995942;28;20161;-76
2022/01/22 01:04:23;;;;;;;12.35;8.13;;;;;;;16.95;37.63;103769.22;4995974;28;20104;-81
2022/01/22 01:06:49;;;;;;;12.77;8.52;;;;;;;16.96;37.88;103771.69;4995950;28;20506;-72
2022/01/22 01:09:17;;;;;;;15.32;8.05;;;;;;;17.00;37.92;103755.34;4995830;28;20034;-79
2022/01/22 01:11:48;;;;;;;15.00;8.48;;;;;;;16.95;38.20;103764.50;4995842;28;20061;-77
2022/01/22 01:14:41;;;;;;;14.38;7.22;;;;;;;16.93;38.10;103750.16;4995898;28;20026;-78
2022/01/22 01:33:18;;;;;;;8.98;6.20;;;;;;;16.91;38.10;103736.63;4995566;28;20053;-73
2022/01/22 01:35:44;;;;;;;10.90;5.55;;;;;;;16.94;38.14;103740.78;4995494;28;20370;-72
2022/01/22 01:38:09;;;;;;;12.25;6.75;;;;;;;16.96;38.01;103740.47;4995142;28;20100;-80
2022/01/22 01:40:39;;;;;;;7.25;5.53;;;;;;;16.87;38.20;103741.06;4995276;28;20504;-73
2022/01/22 01:43:26;;;;;;;8.93;5.90;;;;;;;16.94;38.32;103738.00;4995166;28;20035;-73
2022/01/22 01:45:51;;;;;;;10.43;5.28;;;;;;;16.90;38.11;103739.66;4995222;28;20034;-73
2022/01/22 01:48:22;;;;;;;9.68;5.50;;;;;;;16.94;38.13;103735.25;4995155;28;20153;-73
2022/01/22 01:50:48;;;;;;;9.85;5.47;;;;;;;16.94;38.31;103734.44;4995038;28;20492;-72
2022/01/22 01:58:28;;;;;;;10.32;5.25;;;;;;;16.91;38.25;103731.09;4994855;28;20038;-79
2022/01/22 02:00:54;;;;;;;6.60;4.93;;;;;;;16.94;38.23;103729.72;4994781;28;20026;-72
2022/01/22 02:03:20;;;;;;;8.27;4.25;;;;;;;16.91;38.40;103724.75;4994871;28;20113;-72
2022/01/22 02:05:46;;;;;;;8.30;5.38;;;;;;;16.88;38.31;103717.03;4994787;28;20105;-74
2022/01/22 02:08:13;;;;;;;12.05;4.30;;;;;;;16.88;38.31;103715.09;4994786;28;20437;-73
2022/01/22 02:10:45;;;;;;;11.02;4.45;;;;;;;16.88;38.56;103722.56;4994642;28;20469;-74
2022/01/22 02:24:10;;;;;;;8.23;4.28;;;;;;;16.84;38.35;103721.47;4994576;28;20077;-72
2022/01/22 02:26:36;;;;;;;7.40;4.50;;;;;;;16.86;38.47;103717.34;4994380;28;20026;-73
2022/01/22 02:29:03;;;;;;;6.40;4.15;;;;;;;16.85;38.55;103715.69;4994391;28;20481;-72
2022/01/22 02:34:24;;;;;;;7.72;4.07;;;;;;;16.86;38.83;103714.56;4994261;28;20484;-74
2022/01/22 02:36:58;;;;;;;7.20;3.72;;;;;;;16.92;38.59;103709.81;4994198;28;20026;-73
2022/01/22 02:39:40;;;;;;;7.10;3.92;;;;;;;16.86;38.70;103711.81;4993824;28;20078;-77
2022/01/22 02:42:06;;;;;;;6.20;3.75;;;;;;;16.84;38.79;103708.47;4994154;28;20053;-73
2022/01/22 02:44:34;;;;;;;8.77;4.38;;;;;;;16.78;39.01;103706.06;4994267;28;20113;-73
2022/01/22 02:47:03;;;;;;;6.35;3.90;;;;;;;16.79;39.01;103704.94;4994030;28;20029;-77
2022/01/22 02:49:29;;;;;;;8.95;4.13;;;;;;;16.77;38.87;103699.69;4994030;28;20096;-74
2022/01/22 02:52:03;;;;;;;6.47;3.85;;;;;;;16.81;39.11;103700.78;4994040;28;20027;-73
2022/01/22 02:54:29;;;;;;;8.48;4.47;;;;;;;16.80;39.01;103704.66;4993941;28;20481;-73
2022/01/22 02:56:55;;;;;;;9.77;4.68;;;;;;;16.82;38.92;103699.66;4993825;28;20474;-74
2022/01/22 02:59:22;;;;;;;7.45;4.90;;;;;;;16.82;39.16;103698.84;4993871;28;20022;-73
2022/01/22 03:01:48;;;;;;;6.18;4.50;;;;;;;16.82;39.05;103705.19;4993773;28;20030;-73
2022/01/22 03:04:14;;;;;;;6.20;4.05;;;;;;;16.72;39.22;103691.44;4993870;28;20030;-79
2022/01/22 03:06:40;;;;;;;9.25;5.28;;;;;;;16.67;39.33;103702.47;4993693;28;20540;-76
2022/01/22 03:09:09;;;;;;;7.75;3.88;;;;;;;16.62;39.59;103705.25;4993682;28;20502;-80
2022/01/22 03:11:43;;;;;;;8.27;4.67;;;;;;;16.76;39.23;103688.94;4992892;28;20030;-72
2022/01/22 03:14:56;;;;;;;8.02;4.32;;;;;;;16.60;39.70;103696.41;4993642;28;20260;-72
2022/01/22 03:17:28;;;;;;;6.68;4.85;;;;;;;16.68;39.41;103692.25;4993349;28;20138;-80
2022/01/22 03:20:03;;;;;;;6.97;4.88;;;;;;;16.71;39.46;103698.06;4993481;28;20026;-73
2022/01/22 03:22:53;;;;;;;7.57;4.30;;;;;;;16.71;39.29;103692.56;4993346;28;20030;-73
2022/01/22 03:28:00;;;;;;;8.57;4.88;;;;;;;16.76;39.55;103695.28;4993457;28;20057;-73
2022/01/22 03:30:26;;;;;;;9.73;4.25;;;;;;;16.74;39.35;103685.63;4993305;28;20479;-74
2022/01/22 03:32:55;;;;;;;7.38;3.72;;;;;;;16.75;39.47;103681.75;4993406;28;20101;-73
2022/01/22 03:37:51;;;;;;;7.55;3.85;;;;;;;16.81;39.52;103672.34;4993012;28;20029;-73
2022/01/22 03:40:18;;;;;;;6.45;3.63;;;;;;;16.64;39.83;103676.25;4993182;28;20027;-73
2022/01/22 03:42:44;;;;;;;7.80;3.58;;;;;;;16.78;39.87;103667.41;4993146;28;20026;-73
2022/01/22 03:45:11;;;;;;;8.07;3.53;;;;;;;16.83;39.51;103662.66;4993067;28;20104;-73
2022/01/22 03:47:39;;;;;;;7.20;3.97;;;;;;;16.86;39.52;103658.50;4993094;28;20037;-74
2022/01/22 03:50:07;;;;;;;5.45;3.85;;;;;;;16.87;39.75;103665.69;4993082;28;20080;-75
2022/01/22 03:52:33;;;;;;;8.00;4.07;;;;;;;16.95;39.67;103661.50;4993146;28;20492;-72
2022/01/22 03:54:58;;;;;;;6.82;5.05;;;;;;;16.82;39.68;103649.97;4993047;28;20030;-72
2022/01/22 03:57:24;;;;;;;7.78;3.85;;;;;;;16.83;39.71;103651.59;4993035;28;20026;-73
2022/01/22 03:59:53;;;;;;;8.82;4.82;;;;;;;16.71;40.21;103655.84;4993048;28;20413;-73
2022/01/22 04:05:05;;;;;;;10.82;4.82;;;;;;;16.67;40.33;103655.53;4993009;28;20034;-72
2022/01/22 04:10:18;;;;;;;9.55;4.40;;;;;;;16.72;40.20;103655.56;4993130;28;20053;-73
2022/01/22 04:15:12;;;;;;;7.97;4.43;;;;;;;16.75;40.32;103654.13;4993136;28;20027;-72
2022/01/22 04:25:35;;;;;;;6.82;4.90;;;;;;;16.79;40.22;103650.53;4996699;28;20033;-73
2022/01/22 04:28:01;;;;;;;13.05;4.60;;;;;;;16.81;40.28;103653.84;4996646;28;20374;-73
2022/01/22 04:30:30;;;;;;;7.85;4.45;;;;;;;16.77;40.23;103657.44;4996636;28;20037;-72
2022/01/22 04:32:56;;;;;;;7.18;4.47;;;;;;;16.68;40.46;103664.63;4996663;28;20109;-72
2022/01/22 04:35:22;;;;;;;8.23;4.80;;;;;;;16.64;40.78;103670.75;4996474;28;20029;-73
2022/01/22 04:37:49;;;;;;;7.50;4.18;;;;;;;16.66;40.72;103662.16;4996274;28;20616;-73
2022/01/22 04:40:16;;;;;;;8.05;4.63;;;;;;;16.73;40.56;103672.94;4996474;28;20050;-73
2022/01/22 04:42:43;;;;;;;6.05;4.10;;;;;;;16.73;40.54;103672.94;4996322;28;20037;-73
2022/01/22 04:45:26;;;;;;;6.15;4.63;;;;;;;16.73;40.59;103673.75;4996349;28;20022;-73
2022/01/22 04:48:27;;;;;;;6.72;4.75;;;;;;;16.84;40.44;103674.53;4996330;28;20022;-79
2022/01/22 04:56:08;;;;;;;10.57;4.65;;;;;;;16.84;40.41;103671.75;4965623;28;20070;-73
2022/01/22 04:58:33;;;;;;;5.78;4.18;;;;;;;16.84;40.36;103675.34;4996128;28;20101;-73
2022/01/22 05:00:59;;;;;;;10.27;4.60;;;;;;;16.87;40.26;103669.28;4996028;28;20418;-73
2022/01/22 05:03:25;;;;;;;9.43;4.53;;;;;;;16.78;40.77;103668.22;4996004;28;20037;-73
2022/01/22 05:05:51;;;;;;;7.03;4.88;;;;;;;16.79;40.63;103666.28;4995859;28;20100;-75
2022/01/22 05:08:16;;;;;;;5.70;3.90;;;;;;;16.80;40.41;103666.00;4993030;28;20468;-73
2022/01/22 05:10:42;;;;;;;6.95;4.40;;;;;;;16.81;40.72;103673.16;4994463;28;20033;-73
2022/01/22 05:13:07;;;;;;;6.32;4.25;;;;;;;16.71;40.61;103659.41;4995841;28;20026;-72
2022/01/22 05:15:33;;;;;;;7.03;4.13;;;;;;;16.65;41.10;103661.34;4995781;28;20122;-73
2022/01/22 05:18:00;;;;;;;8.68;5.10;;;;;;;16.75;40.94;103665.19;4995728;28;20469;-78
2022/01/22 05:20:34;;;;;;;6.22;3.90;;;;;;;16.71;40.92;103664.94;4995687;28;20030;-73
2022/01/22 05:25:38;;;;;;;8.27;4.20;;;;;;;16.77;40.65;103658.25;4995606;28;20033;-72
2022/01/22 05:38:34;;;;;;;8.35;4.32;;;;;;;16.81;40.71;103658.53;4995142;28;20104;-72
2022/01/22 05:41:02;;;;;;;6.88;4.20;;;;;;;16.82;40.71;103662.94;4995186;28;20058;-72
2022/01/22 05:43:27;;;;;;;8.05;5.10;;;;;;;16.82;40.63;103657.41;4995249;28;20039;-72
2022/01/22 05:45:53;;;;;;;7.35;4.30;;;;;;;16.74;40.92;103658.03;4995205;28;20030;-72
2022/01/22 05:48:19;;;;;;;7.22;3.90;;;;;;;16.70;41.03;103651.41;4995246;28;20052;-73
2022/01/22 05:50:55;;;;;;;5.63;3.95;;;;;;;16.64;40.76;103650.59;4995159;28;20477;-73
2022/01/22 06:01:19;;;;;;;5.60;3.95;;;;;;;16.46;41.74;103656.72;4995108;28;20420;-72
2022/01/22 06:03:45;;;;;;;5.57;3.75;;;;;;;16.41;41.64;103654.84;4994895;28;20026;-72
2022/01/22 06:06:11;;;;;;;5.43;4.05;;;;;;;16.31;41.93;103658.44;4994769;28;20030;-74
2022/01/22 06:08:57;;;;;;;5.20;3.72;;;;;;;16.24;42.37;103659.84;4994776;28;20037;-72
2022/01/22 06:11:25;;;;;;;6.13;4.32;;;;;;;16.16;42.41;103669.53;4994778;28;20180;-72
2022/01/22 06:13:51;;;;;;;7.03;3.75;;;;;;;16.35;41.92;103669.75;4994743;28;20473;-80
2022/01/22 06:16:22;;;;;;;7.35;4.25;;;;;;;16.31;42.11;103663.13;4994632;28;20027;-73
2022/01/22 06:18:50;;;;;;;5.40;3.88;;;;;;;16.36;41.87;103658.44;4994630;28;20030;-76
2022/01/22 06:21:16;;;;;;;7.97;4.28;;;;;;;16.38;41.92;103661.72;4994511;28;20033;-73
2022/01/22 06:23:45;;;;;;;5.28;3.75;;;;;;;16.36;41.99;103660.38;4994488;28;20026;-80
2022/01/22 06:26:11;;;;;;;5.60;3.97;;;;;;;16.38;42.08;103669.19;4994592;28;20034;-81
2022/01/22 06:28:37;;;;;;;5.93;4.00;;;;;;;16.36;42.11;103674.97;4994588;28;20033;-73
2022/01/22 06:31:04;;;;;;;5.60;4.15;;;;;;;16.42;41.96;103666.69;4994395;28;20031;-72
2022/01/22 06:33:29;;;;;;;6.00;3.92;;;;;;;16.41;42.17;103662.28;4994335;28;20029;-72
2022/01/22 06:35:55;;;;;;;7.25;4.22;;;;;;;16.48;41.87;103665.56;4994265;28;20030;-72
2022/01/22 06:38:21;;;;;;;5.38;3.90;;;;;;;16.45;41.97;103664.19;4994068;28;20042;-72
2022/01/22 06:43:31;;;;;;;5.55;3.75;;;;;;;16.48;42.15;103665.56;4994205;28;20161;-72
2022/01/22 06:45:58;;;;;;;6.40;4.30;;;;;;;16.48;42.15;103668.34;4993975;28;20034;-73
2022/01/22 06:48:24;;;;;;;7.05;4.18;;;;;;;16.46;42.06;103671.34;4994057;28;20033;-81
2022/01/22 06:50:49;;;;;;;6.35;3.92;;;;;;;16.44;42.33;103664.47;4994040;28;20031;-72
2022/01/22 06:53:15;;;;;;;5.03;3.35;;;;;;;16.51;42.18;103671.34;4993976;28;20056;-72
2022/01/22 06:55:45;;;;;;;6.53;4.95;;;;;;;16.51;42.25;103671.34;4993959;28;20022;-72
2022/01/22 06:58:11;;;;;;;6.88;4.30;;;;;;;16.44;42.11;103665.28;4993891;28;20077;-72
2022/01/22 07:00:37;;;;;;;5.95;4.20;;;;;;;16.55;41.97;103664.16;4993824;28;20476;-72
2022/01/22 07:03:03;;;;;;;5.13;3.70;;;;;;;16.51;41.98;103668.59;4993735;28;20449;-72
2022/01/22 07:05:29;;;;;;;5.65;3.72;;;;;;;16.48;42.12;103668.34;4993741;28;20034;-72
2022/01/22 07:07:55;;;;;;;5.72;3.95;;;;;;;16.43;42.22;103654.53;4993919;28;20026;-72
2022/01/22 07:10:21;;;;;;;5.15;3.60;;;;;;;16.42;42.36;103661.19;4993697;28;20045;-73
2022/01/22 07:12:46;;;;;;;7.93;4.72;;;;;;;16.36;42.19;103652.91;4993721;28;20030;-72
2022/01/22 07:15:12;;;;;;;6.40;4.10;;;;;;;16.44;42.07;103650.69;4993686;28;20030;-72
2022/01/22 07:17:40;;;;;;;5.57;4.03;;;;;;;16.37;42.20;103651.78;4993673;28;20053;-82
2022/01/22 07:20:15;;;;;;;7.57;3.80;;;;;;;16.40;41.98;103650.44;4993208;28;20050;-73
2022/01/22 07:25:15;;;;;;;5.72;3.60;;;;;;;16.30;42.30;103636.66;4992050;28;20400;-76
2022/01/22 07:27:41;;;;;;;4.53;3.38;;;;;;;16.27;42.28;103639.97;4993333;28;20037;-72
2022/01/22 07:30:07;;;;;;;5.82;4.30;;;;;;;16.27;42.04;103638.06;4993213;28;20401;-72
2022/01/22 07:32:36;;;;;;;4.70;3.47;;;;;;;16.32;42.10;103634.44;4993046;28;20066;-72
2022/01/22 07:35:04;;;;;;;5.50;3.72;;;;;;;16.33;42.10;103627.81;4992928;28;20089;-82
2022/01/22 07:37:29;;;;;;;5.35;3.85;;;;;;;16.29;42.09;103629.47;4992678;28;20441;-76
2022/01/22 07:39:55;;;;;;;7.07;6.47;;;;;;;16.24;42.33;103633.06;4991563;28;20053;-73
2022/01/22 07:42:21;;;;;;;8.80;4.18;;;;;;;16.24;42.22;103638.59;4991496;28;20049;-71
2022/01/22 07:44:46;;;;;;;5.60;3.95;;;;;;;16.31;42.30;103643.81;4991349;28;20077;-72
2022/01/22 07:47:12;;;;;;;6.65;3.80;;;;;;;16.15;42.55;103651.31;4991596;28;20032;-71
2022/01/22 07:49:37;;;;;;;7.38;4.20;;;;;;;16.18;42.69;103652.72;4991630;28;20030;-71
2022/01/22 07:52:04;;;;;;;8.23;4.20;;;;;;;16.21;42.29;103652.97;4991545;28;20077;-82
2022/01/22 07:54:32;;;;;;;7.32;4.00;;;;;;;16.09;42.58;103644.97;4992775;28;20366;-82
2022/01/22 07:56:57;;;;;;;7.63;4.28;;;;;;;16.17;42.40;103657.41;4992538;28;20029;-70
2022/01/22 07:59:23;;;;;;;9.02;4.57;;;;;;;16.11;42.59;103650.25;4993105;28;20109;-71
2022/01/22 08:01:48;;;;;;;6.55;4.03;;;;;;;16.09;42.91;103661.53;4992984;28;20457;-71
2022/01/22 08:04:16;;;;;;;7.38;4.63;;;;;;;16.11;42.86;103652.19;4993121;28;20030;-82
2022/01/22 08:06:41;;;;;;;8.18;5.43;;;;;;;16.13;42.92;103659.06;4993063;28;20027;-71
2022/01/22 08:09:07;;;;;;;7.57;5.18;;;;;;;16.02;42.68;103655.50;4993542;28;20088;-70
2022/01/22 08:11:33;;;;;;;6.53;4.35;;;;;;;15.94;43.11;103661.56;4992987;28;20037;-71
2022/01/22 08:13:58;;;;;;;6.28;4.85;;;;;;;16.04;42.77;103655.22;4992998;28;20030;-73
2022/01/22 08:16:25;;;;;;;5.93;4.25;;;;;;;15.94;42.75;103656.06;4992935;28;20539;-71
2022/01/22 08:18:50;;;;;;;7.25;4.85;;;;;;;15.89;42.82;103658.84;4992805;28;20109;-71
2022/01/22 08:21:17;;;;;;;8.82;4.57;;;;;;;15.89;42.60;103669.88;4993059;28;20122;-71
2022/01/22 08:23:43;;;;;;;7.95;5.68;;;;;;;15.88;42.60;103665.47;4992904;28;20041;-70
2022/01/22 08:26:10;;;;;;;8.77;5.18;;;;;;;15.80;42.66;103666.84;4993091;28;20027;-73
2022/01/22 08:28:55;;;;;;;7.15;4.40;;;;;;;15.82;42.71;103670.16;4992918;28;20036;-73
2022/01/22 08:31:45;;;;;;;8.73;5.60;;;;;;;15.83;42.65;103670.97;4992957;28;20069;-70
2022/01/22 08:36:55;;;;;;;6.57;4.55;;;;;;;15.83;42.65;103676.50;4993164;28;20037;-82
2022/01/22 08:39:24;;;;;;;9.80;5.50;;;;;;;15.83;42.53;103676.50;4992637;28;20046;-84
2022/01/22 08:41:50;;;;;;;8.45;5.38;;;;;;;15.85;42.66;103674.28;4992823;28;20034;-72
2022/01/22 08:44:16;;;;;;;7.20;4.47;;;;;;;15.82;42.78;103686.69;4995350;28;20084;-83
2022/01/22 08:46:42;;;;;;;8.82;5.32;;;;;;;15.82;42.85;103689.44;4994186;28;20027;-71
2022/01/22 08:49:08;;;;;;;7.28;5.28;;;;;;;15.86;42.76;103692.47;4989021;28;20026;-76
2022/01/22 08:51:37;;;;;;;11.35;6.82;;;;;;;15.89;42.88;103691.94;4990213;28;20035;-72
2022/01/22 08:54:03;;;;;;;12.80;6.20;;;;;;;15.95;42.97;103690.00;4980918;28;20496;-71
2022/01/22 08:56:29;;;;;;;9.23;5.88;;;;;;;15.98;42.65;103700.47;4990983;28;20080;-72
2022/01/22 08:58:56;;;;;;;7.45;5.20;;;;;;;15.96;43.05;103695.22;4990875;28;20030;-72
2022/01/22 09:01:23;;;;;;;8.13;5.68;;;;;;;15.93;43.13;103690.25;4990345;28;20699;-71
2022/01/22 09:03:49;;;;;;;12.48;6.82;;;;;;;15.90;43.34;103693.56;4979637;28;20030;-79
2022/01/22 09:06:17;;;;;;;10.70;6.40;;;;;;;15.99;43.27;103694.66;4987614;28;20384;-73
2022/01/22 09:08:45;;;;;;;11.00;6.28;;;;;;;16.00;43.20;103701.81;4990980;28;20473;-70
2022/01/22 09:11:11;;;;;;;11.63;5.88;;;;;;;16.05;43.21;103701.00;4993842;28;20110;-83
2022/01/22 09:13:36;;;;;;;10.75;6.70;;;;;;;16.07;43.17;103705.13;4992841;28;20578;-71
2022/01/22 09:16:03;;;;;;;10.07;5.45;;;;;;;15.95;43.44;103699.09;4984465;28;20098;-82
2022/01/22 09:18:29;;;;;;;10.38;5.68;;;;;;;16.13;43.00;103703.19;4986924;28;20033;-69
2022/01/22 09:21:02;;;;;;;10.02;6.70;;;;;;;15.94;43.63;103704.88;4990276;28;20027;-71
2022/01/22 09:23:29;;;;;;;8.80;5.70;;;;;;;16.17;43.11;103698.78;4995184;28;20424;-70
2022/01/22 09:25:55;;;;;;;13.35;6.07;;;;;;;16.15;43.39;103695.47;4986279;28;20053;-73
2022/01/22 09:28:20;;;;;;;10.07;5.78;;;;;;;16.25;43.09;103697.38;4988273;28;20053;-76
2022/01/22 09:30:47;;;;;;;8.10;5.50;;;;;;;16.22;43.19;103696.00;4991574;28;20049;-70
2022/01/22 09:33:13;;;;;;;7.35;5.55;;;;;;;16.12;43.50;103696.03;4992570;28;20026;-70
2022/01/22 09:35:40;;;;;;;12.75;6.93;;;;;;;16.29;43.39;103690.19;4995016;28;20029;-71
2022/01/22 09:38:06;;;;;;;11.02;6.80;;;;;;;16.41;43.12;103687.13;4994154;28;20070;-79
2022/01/22 09:40:32;;;;;;;9.27;5.40;;;;;;;16.45;43.12;103688.19;4992639;28;20061;-72
2022/01/22 09:42:59;;;;;;;8.40;5.10;;;;;;;16.52;43.17;103683.22;4989163;28;20429;-72
2022/01/22 09:45:26;;;;;;;8.70;5.35;;;;;;;16.58;42.69;103682.91;4987931;28;20034;-77
2022/01/22 09:47:52;;;;;;;10.05;5.88;;;;;;;16.58;43.11;103682.91;4994667;28;20033;-72
2022/01/22 09:50:20;;;;;;;10.93;6.43;;;;;;;16.51;43.22;103674.09;4984052;28;20098;-84
2022/01/22 09:52:46;;;;;;;7.63;5.40;;;;;;;16.29;44.00;103684.66;4994841;28;20034;-71
2022/01/22 09:55:12;;;;;;;8.57;5.60;;;;;;;16.58;43.21;103677.38;4994977;28;20469;-71
2022/01/22 09:57:38;;;;;;;7.95;5.60;;;;;;;16.69;42.66;103680.94;4994923;28;20026;-73
2022/01/22 10:00:09;;;;;;;10.23;4.93;;;;;;;16.57;43.18;103688.72;4991775;28;20031;-71
2022/01/22 10:02:41;;;;;;;8.93;4.85;;;;;;;16.48;43.29;103682.97;4994726;28;20493;-71
2022/01/22 10:05:29;;;;;;;11.05;5.72;;;;;;;16.59;42.78;103678.22;4993471;28;20538;-71
2022/01/22 10:08:32;;;;;;;7.03;4.93;;;;;;;16.25;43.51;103689.94;4994799;28;20477;-74
2022/01/22 10:11:00;;;;;;;5.43;3.92;;;;;;;16.36;43.40;103693.47;4994636;28;20397;-72
2022/01/22 10:13:41;;;;;;;9.05;5.40;;;;;;;16.23;43.52;103694.06;4993494;28;20473;-81
2022/01/22 10:16:12;;;;;;;5.95;4.35;;;;;;;16.09;43.80;103696.56;4992745;28;20030;-71
2022/01/22 10:18:37;;;;;;;6.78;5.07;;;;;;;16.28;43.34;103696.81;4992489;28;20034;-71
2022/01/22 10:21:07;;;;;;;7.95;5.35;;;;;;;16.19;43.69;103691.06;4992725;28;20026;-82
2022/01/22 10:23:39;;;;;;;8.13;5.13;;;;;;;16.30;43.62;103692.66;4994086;28;20065;-70
2022/01/22 10:26:07;;;;;;;8.32;4.63;;;;;;;16.15;44.22;103687.19;4994275;28;20450;-80
2022/01/22 10:28:46;;;;;;;9.55;5.63;;;;;;;16.40;43.73;103690.97;4994458;28;20042;-76
2022/01/22 10:31:24;;;;;;;8.48;5.43;;;;;;;16.53;43.27;103695.91;4992643;28;20058;-77
2022/01/22 10:34:10;;;;;;;9.75;4.78;;;;;;;16.31;43.92;103693.47;4994177;28;20030;-78
2022/01/22 10:36:37;;;;;;;9.32;5.28;;;;;;;16.38;44.28;103689.31;4994159;28;20034;-78
2022/01/22 10:39:08;;;;;;;6.45;4.85;;;;;;;16.60;43.41;103683.44;4992249;28;20137;-78
2022/01/22 10:41:41;;;;;;;7.57;5.05;;;;;;;16.57;43.69;103691.47;4993120;28;20027;-78
2022/01/22 10:44:15;;;;;;;6.95;4.60;;;;;;;16.67;43.51;103690.59;4993671;28;20117;-78
2022/01/22 10:46:44;;;;;;;6.57;5.38;;;;;;;16.81;43.40;103698.00;4993565;28;20019;-78
2022/01/22 10:49:24;;;;;;;6.60;4.97;;;;;;;16.70;43.60;103679.00;4993752;28;20030;-78
2022/01/22 10:52:03;;;;;;;6.85;4.95;;;;;;;16.75;43.73;103687.28;4993855;28;20039;-79
2022/01/22 10:54:35;;;;;;;5.47;4.32;;;;;;;16.89;43.58;103691.91;4993919;28;20029;-78
2022/01/22 10:57:16;;;;;;;8.32;4.60;;;;;;;16.71;44.01;103692.56;4993523;28;20389;-80
2022/01/22 10:59:52;;;;;;;7.32;4.63;;;;;;;16.95;43.59;103698.22;4992749;28;20053;-78
2022/01/22 11:02:29;;;;;;;6.18;4.10;;;;;;;16.96;43.56;103699.06;4993701;28;20034;-79
2022/01/22 11:04:55;;;;;;;6.80;3.85;;;;;;;16.78;43.99;103711.56;4993760;28;20433;-78
2022/01/22 11:07:21;;;;;;;11.27;5.03;;;;;;;17.00;43.51;103698.19;4992148;28;20030;-79
2022/01/22 11:09:48;;;;;;;6.68;4.43;;;;;;;16.77;44.07;103701.63;4988579;28;20026;-78
2022/01/22 11:12:14;;;;;;;8.15;4.55;;;;;;;16.94;43.98;103696.56;4996194;28;20034;-79
2022/01/22 11:14:44;;;;;;;5.97;3.15;;;;;;;17.08;43.38;103694.84;4996728;28;20038;-78
2022/01/22 11:17:10;;;;;;;7.30;4.60;;;;;;;16.91;43.95;103697.13;4997876;28;20073;-79
2022/01/22 11:19:38;;;;;;;5.63;3.83;;;;;;;16.80;44.04;103695.53;4995396;28;20168;-79
2022/01/22 11:22:08;;;;;;;7.47;5.07;;;;;;;16.89;43.88;103696.59;4996956;28;20040;-79
2022/01/22 11:24:41;;;;;;;6.10;4.30;;;;;;;16.94;43.56;103693.00;4998811;28;20025;-79
2022/01/22 11:27:10;;;;;;;3.70;2.85;;;;;;;16.77;44.29;103685.06;4996134;28;20026;-79
2022/01/22 11:29:46;;;;;;;6.07;2.67;;;;;;;16.80;44.18;103690.03;5010511;28;20026;-78
2022/01/22 11:32:13;;;;;;;3.40;2.35;;;;;;;17.15;43.58;103681.53;5012450;28;20436;-79
2022/01/22 11:34:42;;;;;;;4.18;3.25;;;;;;;17.10;43.73;103692.59;5012925;28;20057;-77
2022/01/22 11:37:29;;;;;;;3.47;2.40;;;;;;;16.97;44.46;103687.72;5012989;28;20385;-81
2022/01/22 11:40:13;;;;;;;4.57;2.60;;;;;;;17.17;44.11;103687.59;5012774;28;20038;-76
2022/01/22 11:43:40;;;;;;;4.03;1.90;;;;;;;17.23;43.64;103684.78;5011854;28;20028;-79
2022/01/22 11:45:49;;;;;;;4.57;2.20;;;;;;;17.42;43.35;103692.09;5004720;28;20034;-78
2022/01/22 11:48:24;;;;;;;2.92;2.08;;;;;;;17.15;43.97;103691.72;5012949;28;20014;-78
2022/01/22 11:50:52;;;;;;;4.18;2.10;;;;;;;17.43;42.77;103673.56;5012900;28;20064;-79
2022/01/22 11:53:29;;;;;;;5.70;2.20;;;;;;;17.33;43.18;103691.06;5012763;28;20024;-78
2022/01/22 11:56:13;;;;;;;3.60;2.40;;;;;;;17.30;43.11;103686.09;5012671;28;20050;-79
2022/01/22 11:59:11;;;;;;;6.05;2.40;;;;;;;17.38;42.94;103693.81;5012493;28;20026;-77
2022/01/22 12:01:50;;;;;;;10.10;2.70;;;;;;;17.60;42.60;103689.75;5006938;28;20396;-77
2022/01/22 12:04:17;;;;;;;3.75;2.17;;;;;;;17.74;42.45;103683.28;5009917;28;20492;-78
2022/01/22 12:07:04;;;;;;;3.47;2.20;;;;;;;17.71;42.19;103683.06;5010995;28;20022;-78
2022/01/22 12:09:51;;;;;;;3.80;2.05;;;;;;;17.77;42.20;103681.06;5010888;28;20022;-77
2022/01/22 12:15:22;;;;;;;4.85;2.95;;;;;;;17.59;42.21;103685.31;5011296;28;20107;-76
2022/01/22 12:17:49;;;;;;;6.07;2.65;;;;;;;17.62;42.31;103680.06;5010665;28;20024;-77
2022/01/22 12:20:41;;;;;;;5.95;3.33;;;;;;;17.44;42.66;103678.00;5010741;28;20025;-78
2022/01/22 12:23:12;;;;;;;7.93;4.85;;;;;;;17.71;42.14;103677.53;5010716;28;20109;-78
2022/01/22 12:25:37;;;;;;;5.97;4.72;;;;;;;17.77;42.09;103681.91;5010832;28;20025;-78
2022/01/22 12:28:05;;;;;;;6.82;4.00;;;;;;;17.86;41.80;103682.09;5010659;28;20022;-77
2022/01/22 12:30:39;;;;;;;5.10;3.10;;;;;;;17.67;42.22;103674.47;5010952;28;20029;-78
2022/01/22 12:33:12;;;;;;;6.28;4.22;;;;;;;17.75;42.14;103676.63;5012430;28;20022;-78
2022/01/22 12:35:41;;;;;;;11.07;3.78;;;;;;;17.79;42.03;103679.66;5012305;28;20028;-77
2022/01/22 12:38:47;;;;;;;4.22;2.92;;;;;;;17.72;42.18;103685.53;5012135;28;20455;-78
2022/01/22 12:41:47;;;;;;;5.38;3.05;;;;;;;17.86;41.84;103685.69;5005768;28;20033;-78
2022/01/22 12:44:05;;;;;;;5.72;3.17;;;;;;;17.79;42.05;103678.84;5014321;28;20113;-77
2022/01/22 12:46:31;;;;;;;3.38;2.47;;;;;;;17.84;41.92;103679.63;5015916;28;20025;-78
2022/01/22 12:48:57;;;;;;;5.68;3.20;;;;;;;17.77;41.96;103670.84;5015864;28;20453;-77
2022/01/22 12:51:27;;;;;;;4.45;2.78;;;;;;;17.63;42.28;103683.66;5015941;28;20026;-77
2022/01/22 12:53:53;;;;;;;6.50;2.40;;;;;;;17.59;42.40;103679.81;5014639;28;20029;-78
2022/01/22 12:59:01;;;;;;;5.32;3.17;;;;;;;17.65;42.20;103678.66;5009207;28;20022;-78
2022/01/22 13:01:29;;;;;;;7.70;3.58;;;;;;;17.78;42.12;103672.47;4999594;28;20514;-77
2022/01/22 13:03:56;;;;;;;6.90;5.20;;;;;;;17.58;42.34;103669.84;4999176;28;20069;-77
2022/01/22 13:06:26;;;;;;;5.93;4.65;;;;;;;17.55;42.52;103671.28;4994596;28;20057;-78
2022/01/22 13:08:58;;;;;;;7.38;5.13;;;;;;;17.77;41.99;103670.00;4990590;28;20041;-78
2022/01/22 13:11:28;;;;;;;9.10;4.22;;;;;;;17.69;42.03;103661.19;4982244;28;20022;-78
2022/01/22 13:13:55;;;;;;;9.02;4.30;;;;;;;17.83;41.94;103663.28;4978468;28;20034;-82